sensor_id;sensor_type;location;lat;lon;timestamp;temperature;humidity
4054;DHT22;2042;47.956;9.222;2023-01-28T00:00:08;-2.10;16.30
4054;DHT22;2042;47.956;9.222;2023-01-28T00:02:35;-2.10;16.30
4054;DHT22;2042;47.956;9.222;2023-01-28T00:05:00;-2.10;16.30
4054;DHT22;2042;47.956;9.222;2023-01-28T00:07:27;-2.10;16.50
4054;DHT22;2042;47.956;9.222;2023-01-28T00:09:52;-2.10;16.60
4054;DHT22;2042;47.956;9.222;2023-01-28T00:12:18;-2.10;16.60
4054;DHT22;2042;47.956;9.222;2023-01-28T00:14:44;-2.10;16.70
4054;DHT22;2042;47.956;9.222;2023-01-28T00:17:11;-2.10;16.70
4054;DHT22;2042;47.956;9.222;2023-01-28T00:19:36;-2.10;16.70
4054;DHT22;2042;47.956;9.222;2023-01-28T00:22:03;-2.10;16.70
4054;DHT22;2042;47.956;9.222;2023-01-28T00:24:29;-2.00;16.70
4054;DHT22;2042;47.956;9.222;2023-01-28T00:26:55;-2.10;16.70
4054;DHT22;2042;47.956;9.222;2023-01-28T00:29:20;-2.00;16.70
4054;DHT22;2042;47.956;9.222;2023-01-28T00:31:46;-2.10;16.70
4054;DHT22;2042;47.956;9.222;2023-01-28T00:34:12;-2.00;16.80
4054;DHT22;2042;47.956;9.222;2023-01-28T00:36:37;-2.00;16.80
4054;DHT22;2042;47.956;9.222;2023-01-28T00:39:04;-2.10;16.80
4054;DHT22;2042;47.956;9.222;2023-01-28T00:41:31;-2.00;16.70
4054;DHT22;2042;47.956;9.222;2023-01-28T00:43:57;-2.00;16.80
4054;DHT22;2042;47.956;9.222;2023-01-28T00:46:23;-2.00;16.80
4054;DHT22;2042;47.956;9.222;2023-01-28T00:48:52;-2.10;16.80
4054;DHT22;2042;47.956;9.222;2023-01-28T00:51:18;-2.10;16.80
4054;DHT22;2042;47.956;9.222;2023-01-28T00:53:47;-2.00;16.80
4054;DHT22;2042;47.956;9.222;2023-01-28T00:56:15;-2.10;16.60
4054;DHT22;2042;47.956;9.222;2023-01-28T00:58:42;-2.10;16.60
4054;DHT22;2042;47.956;9.222;2023-01-28T01:01:10;-2.10;16.60
4054;DHT22;2042;47.956;9.222;2023-01-28T01:03:36;-2.10;16.60
4054;DHT22;2042;47.956;9.222;2023-01-28T01:06:03;-2.10;16.70
4054;DHT22;2042;47.956;9.222;2023-01-28T01:08:29;-2.10;16.70
4054;DHT22;2042;47.956;9.222;2023-01-28T01:11:03;-2.10;16.70
4054;DHT22;2042;47.956;9.222;2023-01-28T01:13:30;-2.10;16.70
4054;DHT22;2042;47.956;9.222;2023-01-28T01:16:07;-2.10;16.70
4054;DHT22;2042;47.956;9.222;2023-01-28T01:18:34;-2.10;16.60
4054;DHT22;2042;47.956;9.222;2023-01-28T01:21:01;-2.10;16.60
4054;DHT22;2042;47.956;9.222;2023-01-28T01:23:28;-2.00;16.70
4054;DHT22;2042;47.956;9.222;2023-01-28T01:25:54;-2.10;16.70
4054;DHT22;2042;47.956;9.222;2023-01-28T01:28:20;-2.00;16.80
4054;DHT22;2042;47.956;9.222;2023-01-28T01:30:46;-2.00;16.80
4054;DHT22;2042;47.956;9.222;2023-01-28T01:33:12;-2.10;17.20
4054;DHT22;2042;47.956;9.222;2023-01-28T01:35:38;-2.10;16.60
4054;DHT22;2042;47.956;9.222;2023-01-28T01:38:04;-2.10;16.70
4054;DHT22;2042;47.956;9.222;2023-01-28T01:40:30;-2.00;16.80
4054;DHT22;2042;47.956;9.222;2023-01-28T01:42:56;-2.00;16.80
4054;DHT22;2042;47.956;9.222;2023-01-28T01:45:21;-2.00;16.80
4054;DHT22;2042;47.956;9.222;2023-01-28T01:50:55;-2.10;16.70
4054;DHT22;2042;47.956;9.222;2023-01-28T01:53:24;-2.10;16.60
4054;DHT22;2042;47.956;9.222;2023-01-28T01:55:53;-2.10;16.60
4054;DHT22;2042;47.956;9.222;2023-01-28T01:58:24;-2.10;16.70
4054;DHT22;2042;47.956;9.222;2023-01-28T02:00:51;-2.10;16.70
4054;DHT22;2042;47.956;9.222;2023-01-28T02:03:22;-2.00;16.90
4054;DHT22;2042;47.956;9.222;2023-01-28T02:05:51;-2.10;16.90
4054;DHT22;2042;47.956;9.222;2023-01-28T02:08:16;-2.00;17.10
4054;DHT22;2042;47.956;9.222;2023-01-28T02:10:48;-2.00;17.10
4054;DHT22;2042;47.956;9.222;2023-01-28T02:13:16;-2.00;17.10
4054;DHT22;2042;47.956;9.222;2023-01-28T02:15:43;-2.00;17.10
4054;DHT22;2042;47.956;9.222;2023-01-28T02:18:10;-2.00;17.20
4054;DHT22;2042;47.956;9.222;2023-01-28T02:26:26;-2.00;17.10
4054;DHT22;2042;47.956;9.222;2023-01-28T02:31:59;-2.00;17.30
4054;DHT22;2042;47.956;9.222;2023-01-28T02:37:05;-2.00;17.30
4054;DHT22;2042;47.956;9.222;2023-01-28T02:39:37;-2.00;17.30
4054;DHT22;2042;47.956;9.222;2023-01-28T02:42:16;-2.00;17.40
4054;DHT22;2042;47.956;9.222;2023-01-28T02:44:42;-2.00;17.40
4054;DHT22;2042;47.956;9.222;2023-01-28T02:47:12;-2.00;17.40
4054;DHT22;2042;47.956;9.222;2023-01-28T02:50:00;-2.00;17.50
4054;DHT22;2042;47.956;9.222;2023-01-28T02:55:48;-2.00;17.80
4054;DHT22;2042;47.956;9.222;2023-01-28T03:03:51;-2.00;17.80
4054;DHT22;2042;47.956;9.222;2023-01-28T03:06:24;-2.00;17.90
4054;DHT22;2042;47.956;9.222;2023-01-28T03:09:01;-1.90;18.00
4054;DHT22;2042;47.956;9.222;2023-01-28T03:14:37;-2.00;17.80
4054;DHT22;2042;47.956;9.222;2023-01-28T03:17:45;-2.00;17.80
4054;DHT22;2042;47.956;9.222;2023-01-28T03:20:42;-2.00;17.80
4054;DHT22;2042;47.956;9.222;2023-01-28T03:23:32;-2.00;17.80
4054;DHT22;2042;47.956;9.222;2023-01-28T03:26:21;-2.00;17.80
4054;DHT22;2042;47.956;9.222;2023-01-28T03:29:08;-2.00;17.70
4054;DHT22;2042;47.956;9.222;2023-01-28T03:31:54;-2.00;17.80
4054;DHT22;2042;47.956;9.222;2023-01-28T03:34:39;-2.10;17.80
4054;DHT22;2042;47.956;9.222;2023-01-28T03:37:24;-2.00;18.00
4054;DHT22;2042;47.956;9.222;2023-01-28T03:39:51;-2.00;18.10
4054;DHT22;2042;47.956;9.222;2023-01-28T03:42:17;-2.00;18.10
4054;DHT22;2042;47.956;9.222;2023-01-28T03:44:43;-2.00;18.10
4054;DHT22;2042;47.956;9.222;2023-01-28T03:47:28;-2.00;18.00
4054;DHT22;2042;47.956;9.222;2023-01-28T03:49:56;-2.00;18.10
4054;DHT22;2042;47.956;9.222;2023-01-28T03:52:26;-2.00;18.10
4054;DHT22;2042;47.956;9.222;2023-01-28T03:54:52;-2.00;18.10
4054;DHT22;2042;47.956;9.222;2023-01-28T03:57:21;-2.00;18.20
4054;DHT22;2042;47.956;9.222;2023-01-28T03:59:47;-2.00;18.10
4054;DHT22;2042;47.956;9.222;2023-01-28T04:02:18;-2.10;18.00
4054;DHT22;2042;47.956;9.222;2023-01-28T04:04:44;-2.00;18.10
4054;DHT22;2042;47.956;9.222;2023-01-28T04:07:11;-2.00;18.10
4054;DHT22;2042;47.956;9.222;2023-01-28T04:09:38;-2.00;18.20
4054;DHT22;2042;47.956;9.222;2023-01-28T04:12:04;-2.00;18.30
4054;DHT22;2042;47.956;9.222;2023-01-28T04:14:30;-2.00;18.40
4054;DHT22;2042;47.956;9.222;2023-01-28T04:16:56;-2.00;18.40
4054;DHT22;2042;47.956;9.222;2023-01-28T04:19:22;-2.00;18.40
4054;DHT22;2042;47.956;9.222;2023-01-28T04:21:48;-2.00;18.30
4054;DHT22;2042;47.956;9.222;2023-01-28T04:24:15;-2.00;18.60
4054;DHT22;2042;47.956;9.222;2023-01-28T04:26:41;-2.00;18.60
4054;DHT22;2042;47.956;9.222;2023-01-28T04:29:07;-2.00;18.60
4054;DHT22;2042;47.956;9.222;2023-01-28T04:31:33;-2.00;18.50
4054;DHT22;2042;47.956;9.222;2023-01-28T04:33:59;-2.00;18.50
4054;DHT22;2042;47.956;9.222;2023-01-28T04:36:25;-2.00;18.50
4054;DHT22;2042;47.956;9.222;2023-01-28T04:38:51;-2.00;18.70
4054;DHT22;2042;47.956;9.222;2023-01-28T04:41:18;-2.00;18.70
4054;DHT22;2042;47.956;9.222;2023-01-28T04:43:43;-2.10;18.60
4054;DHT22;2042;47.956;9.222;2023-01-28T04:46:15;-2.10;18.60
4054;DHT22;2042;47.956;9.222;2023-01-28T04:48:41;-2.00;18.70
4054;DHT22;2042;47.956;9.222;2023-01-28T04:51:07;-2.00;18.70
4054;DHT22;2042;47.956;9.222;2023-01-28T04:53:33;-2.00;18.80
4054;DHT22;2042;47.956;9.222;2023-01-28T04:55:59;-2.10;18.70
4054;DHT22;2042;47.956;9.222;2023-01-28T04:58:25;-2.10;18.70
4054;DHT22;2042;47.956;9.222;2023-01-28T05:00:55;-2.00;18.90
4054;DHT22;2042;47.956;9.222;2023-01-28T05:03:21;-2.00;18.90
4054;DHT22;2042;47.956;9.222;2023-01-28T05:05:47;-2.00;18.90
4054;DHT22;2042;47.956;9.222;2023-01-28T05:08:12;-2.00;18.90
4054;DHT22;2042;47.956;9.222;2023-01-28T05:10:38;-2.10;18.90
4054;DHT22;2042;47.956;9.222;2023-01-28T05:13:05;-2.00;18.90
4054;DHT22;2042;47.956;9.222;2023-01-28T05:15:30;-2.10;18.80
4054;DHT22;2042;47.956;9.222;2023-01-28T05:17:56;-2.10;18.90
4054;DHT22;2042;47.956;9.222;2023-01-28T05:20:22;-2.10;19.00
4054;DHT22;2042;47.956;9.222;2023-01-28T05:22:47;-2.00;19.10
4054;DHT22;2042;47.956;9.222;2023-01-28T05:25:13;-2.00;19.10
4054;DHT22;2042;47.956;9.222;2023-01-28T05:27:38;-2.00;19.10
4054;DHT22;2042;47.956;9.222;2023-01-28T05:30:05;-2.00;19.10
4054;DHT22;2042;47.956;9.222;2023-01-28T05:32:31;-2.00;19.00
4054;DHT22;2042;47.956;9.222;2023-01-28T05:34:57;-2.10;19.00
4054;DHT22;2042;47.956;9.222;2023-01-28T05:37:22;-2.10;19.00
4054;DHT22;2042;47.956;9.222;2023-01-28T05:39:48;-2.10;19.10
4054;DHT22;2042;47.956;9.222;2023-01-28T05:42:14;-2.10;19.10
4054;DHT22;2042;47.956;9.222;2023-01-28T05:44:40;-2.00;19.20
4054;DHT22;2042;47.956;9.222;2023-01-28T05:47:06;-2.00;19.30
4054;DHT22;2042;47.956;9.222;2023-01-28T05:49:32;-2.00;19.30
4054;DHT22;2042;47.956;9.222;2023-01-28T05:51:57;-2.00;19.30
4054;DHT22;2042;47.956;9.222;2023-01-28T05:54:23;-2.00;19.30
4054;DHT22;2042;47.956;9.222;2023-01-28T05:56:49;-2.00;19.30
4054;DHT22;2042;47.956;9.222;2023-01-28T05:59:14;-2.00;19.20
4054;DHT22;2042;47.956;9.222;2023-01-28T06:01:40;-2.00;19.20
4054;DHT22;2042;47.956;9.222;2023-01-28T06:04:06;-2.00;19.20
4054;DHT22;2042;47.956;9.222;2023-01-28T06:06:32;-2.00;19.20
4054;DHT22;2042;47.956;9.222;2023-01-28T06:08:57;-2.00;19.30
4054;DHT22;2042;47.956;9.222;2023-01-28T06:11:23;-2.00;19.30
4054;DHT22;2042;47.956;9.222;2023-01-28T06:13:49;-2.00;19.30
4054;DHT22;2042;47.956;9.222;2023-01-28T06:16:15;-2.00;19.30
4054;DHT22;2042;47.956;9.222;2023-01-28T06:18:40;-2.00;19.30
4054;DHT22;2042;47.956;9.222;2023-01-28T06:21:07;-2.10;19.20
4054;DHT22;2042;47.956;9.222;2023-01-28T06:23:32;-2.00;19.30
4054;DHT22;2042;47.956;9.222;2023-01-28T06:25:58;-2.00;19.30
4054;DHT22;2042;47.956;9.222;2023-01-28T06:28:25;-2.00;19.40
4054;DHT22;2042;47.956;9.222;2023-01-28T06:30:51;-2.00;19.40
4054;DHT22;2042;47.956;9.222;2023-01-28T06:33:18;-2.00;19.50
4054;DHT22;2042;47.956;9.222;2023-01-28T06:35:44;-2.00;19.50
4054;DHT22;2042;47.956;9.222;2023-01-28T06:38:11;-2.00;19.50
4054;DHT22;2042;47.956;9.222;2023-01-28T06:40:37;-2.00;19.50
4054;DHT22;2042;47.956;9.222;2023-01-28T06:43:04;-2.00;19.50
4054;DHT22;2042;47.956;9.222;2023-01-28T06:45:30;-2.00;19.50
4054;DHT22;2042;47.956;9.222;2023-01-28T06:47:55;-2.00;19.50
4054;DHT22;2042;47.956;9.222;2023-01-28T06:50:21;-2.00;19.60
4054;DHT22;2042;47.956;9.222;2023-01-28T06:52:47;-2.00;19.60
4054;DHT22;2042;47.956;9.222;2023-01-28T06:55:12;-1.90;19.70
4054;DHT22;2042;47.956;9.222;2023-01-28T06:57:39;-2.00;20.00
4054;DHT22;2042;47.956;9.222;2023-01-28T07:00:06;-1.90;20.10
4054;DHT22;2042;47.956;9.222;2023-01-28T07:02:37;-2.00;19.90
4054;DHT22;2042;47.956;9.222;2023-01-28T07:05:04;-2.00;19.90
4054;DHT22;2042;47.956;9.222;2023-01-28T07:07:30;-2.00;19.90
4054;DHT22;2042;47.956;9.222;2023-01-28T07:09:56;-2.00;19.70
4054;DHT22;2042;47.956;9.222;2023-01-28T07:12:21;-2.00;19.50
4054;DHT22;2042;47.956;9.222;2023-01-28T07:14:47;-2.00;19.40
4054;DHT22;2042;47.956;9.222;2023-01-28T07:17:13;-2.00;19.10
4054;DHT22;2042;47.956;9.222;2023-01-28T07:19:38;-2.00;18.90
4054;DHT22;2042;47.956;9.222;2023-01-28T07:22:04;-1.90;18.80
4054;DHT22;2042;47.956;9.222;2023-01-28T07:24:29;-1.90;18.60
4054;DHT22;2042;47.956;9.222;2023-01-28T07:26:55;-1.90;18.20
4054;DHT22;2042;47.956;9.222;2023-01-28T07:29:21;-1.90;17.70
4054;DHT22;2042;47.956;9.222;2023-01-28T07:31:47;-1.90;17.40
4054;DHT22;2042;47.956;9.222;2023-01-28T07:34:12;-1.90;17.20
4054;DHT22;2042;47.956;9.222;2023-01-28T07:36:38;-1.90;17.00
4054;DHT22;2042;47.956;9.222;2023-01-28T07:39:04;-1.90;16.70
4054;DHT22;2042;47.956;9.222;2023-01-28T07:41:31;-1.80;16.50
4054;DHT22;2042;47.956;9.222;2023-01-28T07:43:57;-1.80;16.20
4054;DHT22;2042;47.956;9.222;2023-01-28T07:46:23;-1.80;15.90
4054;DHT22;2042;47.956;9.222;2023-01-28T07:48:49;-1.70;15.50
4054;DHT22;2042;47.956;9.222;2023-01-28T07:51:14;-1.70;15.10
4054;DHT22;2042;47.956;9.222;2023-01-28T07:53:40;-1.70;14.20
4054;DHT22;2042;47.956;9.222;2023-01-28T07:56:06;-1.60;13.80
4054;DHT22;2042;47.956;9.222;2023-01-28T07:58:32;-1.60;13.70
4054;DHT22;2042;47.956;9.222;2023-01-28T08:00:59;-1.50;13.60
4054;DHT22;2042;47.956;9.222;2023-01-28T08:03:25;-1.40;13.20
4054;DHT22;2042;47.956;9.222;2023-01-28T08:05:53;-1.30;12.60
4054;DHT22;2042;47.956;9.222;2023-01-28T08:08:23;-1.30;11.60
4054;DHT22;2042;47.956;9.222;2023-01-28T08:10:49;-1.20;10.40
4054;DHT22;2042;47.956;9.222;2023-01-28T08:13:16;-1.10;10.10
4054;DHT22;2042;47.956;9.222;2023-01-28T08:15:42;-1.00;9.60
4054;DHT22;2042;47.956;9.222;2023-01-28T08:18:10;-0.80;9.30
4054;DHT22;2042;47.956;9.222;2023-01-28T08:20:37;-0.80;7.20
4054;DHT22;2042;47.956;9.222;2023-01-28T08:23:07;-0.70;6.10
4054;DHT22;2042;47.956;9.222;2023-01-28T08:25:34;-0.70;4.10
4054;DHT22;2042;47.956;9.222;2023-01-28T08:28:01;-0.70;2.70
4054;DHT22;2042;47.956;9.222;2023-01-28T08:30:26;-0.70;1.00
4054;DHT22;2042;47.956;9.222;2023-01-28T08:32:58;-0.80;1.00
4054;DHT22;2042;47.956;9.222;2023-01-28T08:35:24;-0.90;1.00
4054;DHT22;2042;47.956;9.222;2023-01-28T08:37:50;-1.00;1.00
4054;DHT22;2042;47.956;9.222;2023-01-28T08:40:16;-1.10;1.00
4054;DHT22;2042;47.956;9.222;2023-01-28T08:42:49;-1.10;1.00
4054;DHT22;2042;47.956;9.222;2023-01-28T08:45:16;-1.10;1.00
4054;DHT22;2042;47.956;9.222;2023-01-28T08:47:56;-1.10;1.00
4054;DHT22;2042;47.956;9.222;2023-01-28T08:50:24;-1.10;1.00
4054;DHT22;2042;47.956;9.222;2023-01-28T08:52:55;-1.00;1.00
4054;DHT22;2042;47.956;9.222;2023-01-28T08:55:21;-1.00;1.00
4054;DHT22;2042;47.956;9.222;2023-01-28T08:57:47;-0.90;1.00
4054;DHT22;2042;47.956;9.222;2023-01-28T09:00:13;-0.90;1.00
4054;DHT22;2042;47.956;9.222;2023-01-28T09:02:39;-0.90;1.00
4054;DHT22;2042;47.956;9.222;2023-01-28T09:05:06;-0.80;1.00
4054;DHT22;2042;47.956;9.222;2023-01-28T09:07:34;-0.70;1.00
4054;DHT22;2042;47.956;9.222;2023-01-28T09:09:59;-0.60;1.00
4054;DHT22;2042;47.956;9.222;2023-01-28T09:12:25;-0.60;1.00
4054;DHT22;2042;47.956;9.222;2023-01-28T09:14:51;-0.60;1.00
4054;DHT22;2042;47.956;9.222;2023-01-28T09:17:18;-0.50;1.00
4054;DHT22;2042;47.956;9.222;2023-01-28T09:19:43;-0.50;1.00
4054;DHT22;2042;47.956;9.222;2023-01-28T09:22:09;-0.40;1.00
4054;DHT22;2042;47.956;9.222;2023-01-28T09:24:35;-0.40;1.00
4054;DHT22;2042;47.956;9.222;2023-01-28T09:27:01;-0.40;1.00
4054;DHT22;2042;47.956;9.222;2023-01-28T09:29:27;-0.40;1.00
4054;DHT22;2042;47.956;9.222;2023-01-28T09:31:52;-0.40;1.00
4054;DHT22;2042;47.956;9.222;2023-01-28T09:34:18;-0.40;1.00
4054;DHT22;2042;47.956;9.222;2023-01-28T09:36:44;-0.40;1.00
4054;DHT22;2042;47.956;9.222;2023-01-28T09:39:09;-0.40;1.00
4054;DHT22;2042;47.956;9.222;2023-01-28T09:41:53;-0.30;1.00
4054;DHT22;2042;47.956;9.222;2023-01-28T09:47:34;-0.40;1.00
4054;DHT22;2042;47.956;9.222;2023-01-28T09:50:05;-0.30;1.00
4054;DHT22;2042;47.956;9.222;2023-01-28T09:52:34;-0.10;1.00
4054;DHT22;2042;47.956;9.222;2023-01-28T09:55:14;0.00;1.00
4054;DHT22;2042;47.956;9.222;2023-01-28T09:57:55;0.10;1.00
4054;DHT22;2042;47.956;9.222;2023-01-28T10:00:24;0.00;1.00
4054;DHT22;2042;47.956;9.222;2023-01-28T10:05:42;-0.20;1.00
4054;DHT22;2042;47.956;9.222;2023-01-28T10:14:04;0.10;1.00
4054;DHT22;2042;47.956;9.222;2023-01-28T10:19:18;0.40;1.00
4054;DHT22;2042;47.956;9.222;2023-01-28T10:22:04;0.40;1.00
4054;DHT22;2042;47.956;9.222;2023-01-28T10:24:34;0.30;1.00
4054;DHT22;2042;47.956;9.222;2023-01-28T10:27:02;0.20;1.00
4054;DHT22;2042;47.956;9.222;2023-01-28T10:29:31;0.20;1.00
4054;DHT22;2042;47.956;9.222;2023-01-28T10:32:29;0.30;1.00
4054;DHT22;2042;47.956;9.222;2023-01-28T10:34:55;0.50;1.00
4054;DHT22;2042;47.956;9.222;2023-01-28T10:37:24;0.60;1.00
4054;DHT22;2042;47.956;9.222;2023-01-28T10:39:53;0.60;1.00
4054;DHT22;2042;47.956;9.222;2023-01-28T10:42:37;0.70;1.00
4054;DHT22;2042;47.956;9.222;2023-01-28T10:47:40;0.90;1.00
4054;DHT22;2042;47.956;9.222;2023-01-28T10:50:16;0.90;1.00
4054;DHT22;2042;47.956;9.222;2023-01-28T10:53:12;0.80;1.00
4054;DHT22;2042;47.956;9.222;2023-01-28T10:55:50;0.70;1.00
4054;DHT22;2042;47.956;9.222;2023-01-28T10:58:19;0.60;1.00
4054;DHT22;2042;47.956;9.222;2023-01-28T11:00:55;0.50;1.00
4054;DHT22;2042;47.956;9.222;2023-01-28T11:03:22;0.50;1.00
4054;DHT22;2042;47.956;9.222;2023-01-28T11:05:53;0.60;1.00
4054;DHT22;2042;47.956;9.222;2023-01-28T11:08:20;0.70;1.00
4054;DHT22;2042;47.956;9.222;2023-01-28T11:10:47;0.70;1.00
4054;DHT22;2042;47.956;9.222;2023-01-28T11:15:53;0.70;1.00
4054;DHT22;2042;47.956;9.222;2023-01-28T11:18:25;0.60;1.00
4054;DHT22;2042;47.956;9.222;2023-01-28T11:21:37;0.70;1.00
4054;DHT22;2042;47.956;9.222;2023-01-28T11:23:54;0.70;1.00
4054;DHT22;2042;47.956;9.222;2023-01-28T11:26:34;0.70;1.00
4054;DHT22;2042;47.956;9.222;2023-01-28T11:29:01;0.60;1.00
4054;DHT22;2042;47.956;9.222;2023-01-28T11:31:27;0.50;1.00
4054;DHT22;2042;47.956;9.222;2023-01-28T11:33:57;0.50;1.00
4054;DHT22;2042;47.956;9.222;2023-01-28T11:36:31;0.50;1.00
4054;DHT22;2042;47.956;9.222;2023-01-28T11:38:58;0.50;1.00
4054;DHT22;2042;47.956;9.222;2023-01-28T11:41:31;0.40;1.00
4054;DHT22;2042;47.956;9.222;2023-01-28T11:43:59;0.40;1.00
4054;DHT22;2042;47.956;9.222;2023-01-28T11:46:33;0.40;1.00
4054;DHT22;2042;47.956;9.222;2023-01-28T11:51:58;0.30;1.00
4054;DHT22;2042;47.956;9.222;2023-01-28T12:09:16;1.30;1.00
4054;DHT22;2042;47.956;9.222;2023-01-28T12:37:44;2.20;1.00
4054;DHT22;2042;47.956;9.222;2023-01-28T12:43:15;2.10;1.00
4054;DHT22;2042;47.956;9.222;2023-01-28T12:45:59;2.10;1.00
4054;DHT22;2042;47.956;9.222;2023-01-28T12:48:33;2.10;1.00
4054;DHT22;2042;47.956;9.222;2023-01-28T12:51:18;2.10;1.00
4054;DHT22;2042;47.956;9.222;2023-01-28T12:56:25;2.10;1.00
4054;DHT22;2042;47.956;9.222;2023-01-28T13:01:43;2.20;1.00
4054;DHT22;2042;47.956;9.222;2023-01-28T13:04:35;2.30;1.00
4054;DHT22;2042;47.956;9.222;2023-01-28T13:07:12;2.20;1.00
4054;DHT22;2042;47.956;9.222;2023-01-28T13:09:48;2.10;1.00
4054;DHT22;2042;47.956;9.222;2023-01-28T13:12:16;2.00;1.00
4054;DHT22;2042;47.956;9.222;2023-01-28T13:14:43;1.90;1.00
4054;DHT22;2042;47.956;9.222;2023-01-28T13:17:26;1.90;1.00
4054;DHT22;2042;47.956;9.222;2023-01-28T13:19:52;1.70;1.00
4054;DHT22;2042;47.956;9.222;2023-01-28T13:22:34;1.70;1.00
4054;DHT22;2042;47.956;9.222;2023-01-28T13:25:23;1.60;1.00
4054;DHT22;2042;47.956;9.222;2023-01-28T13:28:00;1.40;1.00
4054;DHT22;2042;47.956;9.222;2023-01-28T13:30:28;1.30;1.00
4054;DHT22;2042;47.956;9.222;2023-01-28T13:33:03;1.20;1.00
4054;DHT22;2042;47.956;9.222;2023-01-28T13:35:35;1.30;1.00
4054;DHT22;2042;47.956;9.222;2023-01-28T13:38:17;1.30;1.00
4054;DHT22;2042;47.956;9.222;2023-01-28T13:40:53;1.30;1.00
4054;DHT22;2042;47.956;9.222;2023-01-28T13:43:35;1.40;1.00
4054;DHT22;2042;47.956;9.222;2023-01-28T13:46:26;1.40;1.00
4054;DHT22;2042;47.956;9.222;2023-01-28T13:48:55;1.30;1.00
4054;DHT22;2042;47.956;9.222;2023-01-28T13:51:25;1.10;1.00
4054;DHT22;2042;47.956;9.222;2023-01-28T13:54:16;1.00;1.00
4054;DHT22;2042;47.956;9.222;2023-01-28T14:18:59;0.70;1.00
4054;DHT22;2042;47.956;9.222;2023-01-28T14:21:27;0.60;1.00
4054;DHT22;2042;47.956;9.222;2023-01-28T14:23:56;0.50;1.00
4054;DHT22;2042;47.956;9.222;2023-01-28T14:26:27;0.50;1.00
4054;DHT22;2042;47.956;9.222;2023-01-28T14:31:56;0.80;1.00
4054;DHT22;2042;47.956;9.222;2023-01-28T14:34:28;0.80;1.00
4054;DHT22;2042;47.956;9.222;2023-01-28T14:36:58;0.70;1.00
4054;DHT22;2042;47.956;9.222;2023-01-28T14:39:27;0.60;1.00
4054;DHT22;2042;47.956;9.222;2023-01-28T14:41:55;0.50;1.00
4054;DHT22;2042;47.956;9.222;2023-01-28T14:44:26;0.50;1.00
4054;DHT22;2042;47.956;9.222;2023-01-28T14:57:48;0.10;1.00
4054;DHT22;2042;47.956;9.222;2023-01-28T15:00:23;0.00;1.00
4054;DHT22;2042;47.956;9.222;2023-01-28T15:02:49;0.00;1.00
4054;DHT22;2042;47.956;9.222;2023-01-28T15:05:21;0.00;1.00
4054;DHT22;2042;47.956;9.222;2023-01-28T15:07:47;0.00;1.00
4054;DHT22;2042;47.956;9.222;2023-01-28T15:12:55;0.00;1.00
4054;DHT22;2042;47.956;9.222;2023-01-28T15:15:46;-0.10;1.00
4054;DHT22;2042;47.956;9.222;2023-01-28T15:18:18;-0.10;1.00
4054;DHT22;2042;47.956;9.222;2023-01-28T15:20:51;-0.20;1.00
4054;DHT22;2042;47.956;9.222;2023-01-28T15:23:25;-0.20;1.00
4054;DHT22;2042;47.956;9.222;2023-01-28T15:25:51;-0.20;1.00
4054;DHT22;2042;47.956;9.222;2023-01-28T15:28:28;-0.30;1.00
4054;DHT22;2042;47.956;9.222;2023-01-28T15:30:55;-0.30;1.00
4054;DHT22;2042;47.956;9.222;2023-01-28T15:33:22;-0.40;1.00
4054;DHT22;2042;47.956;9.222;2023-01-28T15:35:55;-0.40;1.00
4054;DHT22;2042;47.956;9.222;2023-01-28T15:38:22;-0.40;1.00
4054;DHT22;2042;47.956;9.222;2023-01-28T15:40:57;-0.40;1.00
4054;DHT22;2042;47.956;9.222;2023-01-28T15:43:28;-0.40;1.00
4054;DHT22;2042;47.956;9.222;2023-01-28T15:45:56;-0.40;1.00
4054;DHT22;2042;47.956;9.222;2023-01-28T15:48:25;-0.50;1.00
4054;DHT22;2042;47.956;9.222;2023-01-28T15:51:03;-0.50;1.00
4054;DHT22;2042;47.956;9.222;2023-01-28T15:53:33;-0.50;1.00
4054;DHT22;2042;47.956;9.222;2023-01-28T15:56:05;-0.50;1.00
4054;DHT22;2042;47.956;9.222;2023-01-28T15:58:31;-0.50;1.00
4054;DHT22;2042;47.956;9.222;2023-01-28T16:03:34;-0.60;1.00
4054;DHT22;2042;47.956;9.222;2023-01-28T16:08:55;-0.60;1.00
4054;DHT22;2042;47.956;9.222;2023-01-28T16:11:43;-0.70;1.00
4054;DHT22;2042;47.956;9.222;2023-01-28T16:14:27;-0.70;1.00
4054;DHT22;2042;47.956;9.222;2023-01-28T16:16:54;-0.70;1.00
4054;DHT22;2042;47.956;9.222;2023-01-28T16:19:40;-0.70;1.00
4054;DHT22;2042;47.956;9.222;2023-01-28T16:22:07;-0.70;1.00
4054;DHT22;2042;47.956;9.222;2023-01-28T16:24:49;-0.70;1.00
4054;DHT22;2042;47.956;9.222;2023-01-28T16:27:22;-0.80;1.00
4054;DHT22;2042;47.956;9.222;2023-01-28T16:29:48;-0.80;1.00
4054;DHT22;2042;47.956;9.222;2023-01-28T16:32:32;-0.80;1.00
4054;DHT22;2042;47.956;9.222;2023-01-28T16:34:59;-0.80;1.00
4054;DHT22;2042;47.956;9.222;2023-01-28T16:37:26;-0.80;1.00
4054;DHT22;2042;47.956;9.222;2023-01-28T16:39:52;-0.80;1.00
4054;DHT22;2042;47.956;9.222;2023-01-28T16:42:17;-0.90;1.00
4054;DHT22;2042;47.956;9.222;2023-01-28T16:44:43;-0.90;1.00
4054;DHT22;2042;47.956;9.222;2023-01-28T16:47:09;-0.90;1.00
4054;DHT22;2042;47.956;9.222;2023-01-28T16:49:35;-0.90;1.00
4054;DHT22;2042;47.956;9.222;2023-01-28T16:52:02;-0.90;1.00
4054;DHT22;2042;47.956;9.222;2023-01-28T16:54:28;-0.90;1.00
4054;DHT22;2042;47.956;9.222;2023-01-28T16:56:55;-0.90;1.00
4054;DHT22;2042;47.956;9.222;2023-01-28T16:59:21;-0.90;1.00
4054;DHT22;2042;47.956;9.222;2023-01-28T17:01:47;-0.90;1.00
4054;DHT22;2042;47.956;9.222;2023-01-28T17:04:13;-0.90;1.00
4054;DHT22;2042;47.956;9.222;2023-01-28T17:06:43;-0.90;1.00
4054;DHT22;2042;47.956;9.222;2023-01-28T17:09:11;-0.90;1.00
4054;DHT22;2042;47.956;9.222;2023-01-28T17:11:38;-0.90;1.00
4054;DHT22;2042;47.956;9.222;2023-01-28T17:14:07;-0.90;1.00
4054;DHT22;2042;47.956;9.222;2023-01-28T17:16:33;-0.90;1.00
4054;DHT22;2042;47.956;9.222;2023-01-28T17:18:58;-0.90;1.00
4054;DHT22;2042;47.956;9.222;2023-01-28T17:21:24;-0.90;1.00
4054;DHT22;2042;47.956;9.222;2023-01-28T17:23:49;-0.90;1.00
4054;DHT22;2042;47.956;9.222;2023-01-28T17:26:16;-0.90;1.00
4054;DHT22;2042;47.956;9.222;2023-01-28T17:28:41;-0.90;1.00
4054;DHT22;2042;47.956;9.222;2023-01-28T17:31:10;-0.90;1.00
4054;DHT22;2042;47.956;9.222;2023-01-28T17:33:37;-0.90;1.00
4054;DHT22;2042;47.956;9.222;2023-01-28T17:36:03;-0.90;1.00
4054;DHT22;2042;47.956;9.222;2023-01-28T17:38:29;-0.90;1.00
4054;DHT22;2042;47.956;9.222;2023-01-28T17:41:04;-0.90;1.00
4054;DHT22;2042;47.956;9.222;2023-01-28T17:43:30;-0.90;1.00
4054;DHT22;2042;47.956;9.222;2023-01-28T17:45:57;-0.90;1.10
4054;DHT22;2042;47.956;9.222;2023-01-28T17:48:22;-0.90;1.40
4054;DHT22;2042;47.956;9.222;2023-01-28T17:50:48;-0.90;1.60
4054;DHT22;2042;47.956;9.222;2023-01-28T17:53:14;-0.90;1.70
4054;DHT22;2042;47.956;9.222;2023-01-28T17:55:39;-0.90;1.80
4054;DHT22;2042;47.956;9.222;2023-01-28T17:58:05;-0.90;1.70
4054;DHT22;2042;47.956;9.222;2023-01-28T18:00:31;-0.90;1.70
4054;DHT22;2042;47.956;9.222;2023-01-28T18:02:57;-0.90;1.90
4054;DHT22;2042;47.956;9.222;2023-01-28T18:05:23;-0.90;1.90
4054;DHT22;2042;47.956;9.222;2023-01-28T18:07:48;-1.00;2.00
4054;DHT22;2042;47.956;9.222;2023-01-28T18:10:15;-1.00;2.00
4054;DHT22;2042;47.956;9.222;2023-01-28T18:12:41;-1.00;2.20
4054;DHT22;2042;47.956;9.222;2023-01-28T18:15:07;-0.90;2.40
4054;DHT22;2042;47.956;9.222;2023-01-28T18:17:33;-0.90;2.60
4054;DHT22;2042;47.956;9.222;2023-01-28T18:19:58;-1.00;2.60
4054;DHT22;2042;47.956;9.222;2023-01-28T18:22:24;-1.00;2.70
4054;DHT22;2042;47.956;9.222;2023-01-28T18:24:50;-0.90;2.90
4054;DHT22;2042;47.956;9.222;2023-01-28T18:27:16;-0.90;2.90
4054;DHT22;2042;47.956;9.222;2023-01-28T18:29:42;-0.90;3.00
4054;DHT22;2042;47.956;9.222;2023-01-28T18:32:08;-0.90;3.00
4054;DHT22;2042;47.956;9.222;2023-01-28T18:34:33;-0.90;3.00
4054;DHT22;2042;47.956;9.222;2023-01-28T18:36:59;-0.90;3.10
4054;DHT22;2042;47.956;9.222;2023-01-28T18:39:26;-0.90;3.00
4054;DHT22;2042;47.956;9.222;2023-01-28T18:41:54;-0.90;3.00
4054;DHT22;2042;47.956;9.222;2023-01-28T18:44:21;-0.90;3.10
4054;DHT22;2042;47.956;9.222;2023-01-28T18:46:47;-0.90;3.30
4054;DHT22;2042;47.956;9.222;2023-01-28T18:49:13;-0.90;3.30